Time;durP1;ratioP1;P1;durP2;ratioP2;P2;SDS_P1;SDS_P2;PMS_P1;PMS_P2;Temp;Humidity;BMP_temperature;BMP_pressure;BME280_temperature;BME280_humidity;BME280_pressure;Samples;Min_cycle;Max_cycle;Signal;HPM_P1;HPM_P2
2023/06/27 00:01:50;;;;;;;9.00;8.10;;;;;;;;;;5071436;28;20936;-48
2023/06/27 00:04:19;;;;;;;11.77;8.27;;;;;;;;;;5071348;28;20523;-48
2023/06/27 00:06:46;;;;;;;11.50;8.17;;;;;;;;;;5070978;28;20467;-48
2023/06/27 00:09:15;;;;;;;9.10;8.00;;;;;;;;;;5071112;28;20493;-47
2023/06/27 00:11:42;;;;;;;9.27;8.47;;;;;;;;;;5070891;28;20452;-48
2023/06/27 00:14:09;;;;;;;9.90;7.90;;;;;;;;;;5070571;28;21038;-48
2023/06/27 00:16:39;;;;;;;9.53;7.20;;;;;;;;;;5070486;28;20468;-48
2023/06/27 00:19:06;;;;;;;9.10;7.30;;;;;;;;;;5071132;28;20480;-49
2023/06/27 00:21:33;;;;;;;10.00;7.67;;;;;;;;;;5070835;28;20923;-47
2023/06/27 00:24:01;;;;;;;9.67;8.17;;;;;;;;;;5070938;28;20447;-48
2023/06/27 00:26:29;;;;;;;10.03;7.80;;;;;;;;;;5070443;28;20543;-49
2023/06/27 00:28:56;;;;;;;9.67;7.60;;;;;;;;;;5071009;28;20530;-48
2023/06/27 00:31:24;;;;;;;8.00;7.20;;;;;;;;;;5071038;28;20523;-48
2023/06/27 00:33:52;;;;;;;9.17;8.00;;;;;;;;;;5070877;28;20445;-48
2023/06/27 00:36:20;;;;;;;10.60;7.60;;;;;;;;;;5069879;28;20542;-47
2023/06/27 00:38:47;;;;;;;8.67;7.87;;;;;;;;;;5070998;28;20508;-49
2023/06/27 00:41:14;;;;;;;8.80;7.70;;;;;;;;;;5070818;28;20440;-47
2023/06/27 00:43:41;;;;;;;8.67;7.27;;;;;;;;;;5070639;28;20889;-48
2023/06/27 00:46:10;;;;;;;8.90;8.00;;;;;;;;;;5070461;28;20504;-48
2023/06/27 00:48:38;;;;;;;9.50;8.03;;;;;;;;;;5070710;28;20443;-49
2023/06/27 00:51:07;;;;;;;8.30;7.37;;;;;;;;;;5070816;28;20441;-48
2023/06/27 00:53:34;;;;;;;8.43;7.53;;;;;;;;;;5070978;28;20441;-49
2023/06/27 00:56:02;;;;;;;8.97;8.00;;;;;;;;;;5070600;28;20464;-48
2023/06/27 00:58:29;;;;;;;9.50;7.40;;;;;;;;;;5070721;28;20488;-48
2023/06/27 01:01:00;;;;;;;8.33;7.03;;;;;;;;;;5071333;28;20479;-48
2023/06/27 01:03:32;;;;;;;11.00;8.10;;;;;;;;;;5070547;28;20927;-48
2023/06/27 01:05:59;;;;;;;8.80;7.90;;;;;;;;;;5070399;28;20814;-48
2023/06/27 01:08:31;;;;;;;9.30;8.30;;;;;;;;;;5070391;28;20481;-48
2023/06/27 01:11:01;;;;;;;7.50;6.73;;;;;;;;;;5070602;28;20491;-49
2023/06/27 01:13:31;;;;;;;9.00;7.37;;;;;;;;;;5070566;28;20457;-48
2023/06/27 01:15:58;;;;;;;8.97;7.10;;;;;;;;;;5069442;28;20529;-48
2023/06/27 01:18:27;;;;;;;8.33;7.50;;;;;;;;;;5070220;28;20996;-47
2023/06/27 01:20:55;;;;;;;8.60;7.37;;;;;;;;;;5070472;28;20878;-47
2023/06/27 01:23:24;;;;;;;8.73;7.83;;;;;;;;;;5070526;28;20985;-48
2023/06/27 01:25:55;;;;;;;8.80;7.87;;;;;;;;;;5069778;28;20462;-48
2023/06/27 01:28:22;;;;;;;8.37;7.40;;;;;;;;;;5070421;28;20436;-48
2023/06/27 01:30:49;;;;;;;8.10;7.30;;;;;;;;;;5070214;28;20473;-47
2023/06/27 01:33:19;;;;;;;8.63;7.40;;;;;;;;;;5070169;28;20538;-48
2023/06/27 01:35:50;;;;;;;8.57;7.70;;;;;;;;;;5069411;28;20623;-48
2023/06/27 01:38:21;;;;;;;9.03;7.00;;;;;;;;;;5070354;28;21021;-48
2023/06/27 01:40:51;;;;;;;9.43;7.83;;;;;;;;;;5070735;28;20452;-48
2023/06/27 01:43:21;;;;;;;10.20;9.10;;;;;;;;;;5071951;28;20476;-47
2023/06/27 01:45:48;;;;;;;8.73;7.83;;;;;;;;;;5073405;28;20543;-50
2023/06/27 01:48:17;;;;;;;7.37;6.60;;;;;;;;;;5073776;28;20487;-48
2023/06/27 01:50:44;;;;;;;10.00;8.40;;;;;;;;;;5073579;28;20530;-48
2023/06/27 01:53:11;;;;;;;7.40;6.53;;;;;;;;;;5073563;28;20472;-48
2023/06/27 01:55:38;;;;;;;10.37;7.20;;;;;;;;;;5073383;28;20971;-50
2023/06/27 01:58:05;;;;;;;9.93;8.07;;;;;;;;;;5073829;28;20531;-48
2023/06/27 02:00:34;;;;;;;9.53;7.60;;;;;;;;;;5073548;28;20516;-49
2023/06/27 02:03:01;;;;;;;8.20;6.73;;;;;;;;;;5073254;28;20507;-47
2023/06/27 02:05:29;;;;;;;7.67;6.30;;;;;;;;;;5073026;28;20483;-47
2023/06/27 02:07:56;;;;;;;9.33;8.10;;;;;;;;;;5073381;28;20500;-48
2023/06/27 02:10:23;;;;;;;8.77;6.97;;;;;;;;;;5073319;28;20472;-50
2023/06/27 02:12:51;;;;;;;9.27;7.87;;;;;;;;;;5073297;28;20950;-48
2023/06/27 02:15:19;;;;;;;9.03;7.70;;;;;;;;;;5072520;28;20445;-48
2023/06/27 02:17:47;;;;;;;8.43;7.53;;;;;;;;;;5073088;28;20472;-48
2023/06/27 02:20:15;;;;;;;7.63;6.80;;;;;;;;;;5072956;28;20504;-47
2023/06/27 02:22:42;;;;;;;9.63;7.77;;;;;;;;;;5073448;28;20531;-48
2023/06/27 02:25:10;;;;;;;10.20;5.43;;;;;;;;;;5073193;28;20483;-46
2023/06/27 02:27:37;;;;;;;8.60;7.70;;;;;;;;;;5073171;28;20464;-48
2023/06/27 02:30:04;;;;;;;8.40;7.50;;;;;;;;;;5072836;28;20515;-48
2023/06/27 02:32:32;;;;;;;10.73;7.50;;;;;;;;;;5072761;28;20476;-47
2023/06/27 02:35:00;;;;;;;9.47;6.33;;;;;;;;;;5072468;28;20472;-48
2023/06/27 02:37:27;;;;;;;8.53;6.80;;;;;;;;;;5072736;28;20548;-47
2023/06/27 02:39:56;;;;;;;7.47;6.63;;;;;;;;;;5072958;28;21057;-48
2023/06/27 02:42:23;;;;;;;7.07;6.10;;;;;;;;;;5072738;28;20455;-49
2023/06/27 02:44:50;;;;;;;6.33;5.30;;;;;;;;;;5072631;28;20530;-48
2023/06/27 02:47:18;;;;;;;7.07;5.77;;;;;;;;;;5072401;28;20599;-47
2023/06/27 02:49:45;;;;;;;7.03;5.83;;;;;;;;;;5072960;28;20527;-50
2023/06/27 02:52:14;;;;;;;6.33;5.47;;;;;;;;;;5072976;28;20464;-48
2023/06/27 02:54:41;;;;;;;6.43;5.10;;;;;;;;;;5073026;28;20471;-47
2023/06/27 02:57:08;;;;;;;5.60;4.70;;;;;;;;;;5072042;28;20548;-47
2023/06/27 02:59:35;;;;;;;9.57;5.20;;;;;;;;;;5072313;28;20555;-49
2023/06/27 03:02:03;;;;;;;6.53;5.00;;;;;;;;;;5072367;28;20892;-48
2023/06/27 03:04:30;;;;;;;7.03;4.73;;;;;;;;;;5072306;28;20936;-49
2023/06/27 03:06:57;;;;;;;11.73;5.10;;;;;;;;;;5071922;28;20518;-47
2023/06/27 03:09:26;;;;;;;5.07;4.00;;;;;;;;;;5072375;28;20442;-48
2023/06/27 03:11:53;;;;;;;7.60;5.20;;;;;;;;;;5072048;28;20524;-47
2023/06/27 03:14:21;;;;;;;7.50;5.70;;;;;;;;;;5071619;28;20469;-48
2023/06/27 03:16:48;;;;;;;6.80;4.97;;;;;;;;;;5072024;28;20496;-48
2023/06/27 03:19:15;;;;;;;7.80;5.33;;;;;;;;;;5071986;28;21068;-48
2023/06/27 03:21:43;;;;;;;7.47;4.20;;;;;;;;;;5071937;28;20527;-50
2023/06/27 03:24:10;;;;;;;6.27;4.47;;;;;;;;;;5071867;28;20479;-48
2023/06/27 03:26:38;;;;;;;6.30;5.20;;;;;;;;;;5071445;28;20499;-48
2023/06/27 03:29:06;;;;;;;7.53;4.60;;;;;;;;;;5071656;28;20468;-48
2023/06/27 03:31:33;;;;;;;6.60;4.50;;;;;;;;;;5071805;28;20476;-49
2023/06/27 03:34:00;;;;;;;6.70;4.30;;;;;;;;;;5072033;28;20889;-48
2023/06/27 03:36:28;;;;;;;6.97;4.73;;;;;;;;;;5071072;28;20510;-49
2023/06/27 03:38:56;;;;;;;5.93;4.33;;;;;;;;;;5071925;28;20962;-48
2023/06/27 03:41:23;;;;;;;6.60;4.30;;;;;;;;;;5071890;28;20506;-50
2023/06/27 03:43:52;;;;;;;8.43;4.23;;;;;;;;;;5071744;28;20523;-47
2023/06/27 03:46:19;;;;;;;8.90;4.40;;;;;;;;;;5071027;28;20507;-47
2023/06/27 03:48:47;;;;;;;5.17;4.00;;;;;;;;;;5071419;28;20500;-48
2023/06/27 03:51:14;;;;;;;6.30;4.40;;;;;;;;;;5071634;28;20436;-48
2023/06/27 03:53:41;;;;;;;4.53;3.60;;;;;;;;;;5071171;28;20534;-47
2023/06/27 03:56:08;;;;;;;8.60;4.30;;;;;;;;;;5070999;28;20492;-48
2023/06/27 03:58:36;;;;;;;6.90;4.20;;;;;;;;;;5071437;28;20544;-47
2023/06/27 04:01:04;;;;;;;5.20;4.10;;;;;;;;;;5070162;28;21036;-48
2023/06/27 04:03:31;;;;;;;6.60;4.30;;;;;;;;;;5069833;28;20532;-48
2023/06/27 04:05:59;;;;;;;5.90;3.93;;;;;;;;;;5069009;28;20533;-48
2023/06/27 04:08:26;;;;;;;5.40;3.77;;;;;;;;;;5069981;28;20523;-49
2023/06/27 04:10:53;;;;;;;5.93;4.00;;;;;;;;;;5069773;28;20445;-48
2023/06/27 04:13:20;;;;;;;7.20;4.97;;;;;;;;;;5069903;28;20523;-48
2023/06/27 04:15:48;;;;;;;7.80;4.40;;;;;;;;;;5069343;28;20515;-48
2023/06/27 04:18:16;;;;;;;5.40;3.83;;;;;;;;;;5071098;28;20535;-48
2023/06/27 04:20:43;;;;;;;8.33;4.00;;;;;;;;;;5071213;28;20511;-49
2023/06/27 04:23:12;;;;;;;6.13;4.90;;;;;;;;;;5071267;28;20480;-48
2023/06/27 04:25:40;;;;;;;5.37;3.90;;;;;;;;;;5070428;28;20952;-49
2023/06/27 04:28:07;;;;;;;6.60;4.00;;;;;;;;;;5071033;28;20445;-48
2023/06/27 04:30:34;;;;;;;7.50;3.90;;;;;;;;;;5070724;28;20993;-48
2023/06/27 04:33:02;;;;;;;7.43;3.93;;;;;;;;;;5071336;28;20436;-49
2023/06/27 04:35:31;;;;;;;7.67;4.87;;;;;;;;;;5070284;28;20463;-48
2023/06/27 04:37:58;;;;;;;6.80;4.60;;;;;;;;;;5070977;28;20495;-48
2023/06/27 04:40:26;;;;;;;5.53;4.17;;;;;;;;;;5070947;28;20575;-47
2023/06/27 04:42:53;;;;;;;5.63;3.97;;;;;;;;;;5070391;28;21014;-48
2023/06/27 04:45:20;;;;;;;4.97;3.47;;;;;;;;;;5070158;28;20848;-48
2023/06/27 04:47:47;;;;;;;4.77;3.40;;;;;;;;;;5070584;28;20518;-47
2023/06/27 04:50:18;;;;;;;9.00;3.93;;;;;;;;;;5070521;28;20877;-47
2023/06/27 04:52:47;;;;;;;4.57;2.93;;;;;;;;;;5070318;28;20523;-48
2023/06/27 04:55:15;;;;;;;4.37;3.07;;;;;;;;;;5070196;28;20892;-48
2023/06/27 04:57:43;;;;;;;5.07;3.60;;;;;;;;;;5070674;28;20547;-47
2023/06/27 05:00:11;;;;;;;5.03;3.50;;;;;;;;;;5070069;28;20468;-48
2023/06/27 05:02:38;;;;;;;5.77;3.23;;;;;;;;;;5069565;28;20672;-49
2023/06/27 05:05:07;;;;;;;5.80;3.00;;;;;;;;;;5069883;28;20541;-49
2023/06/27 05:07:35;;;;;;;7.53;3.37;;;;;;;;;;5070228;28;20454;-49
2023/06/27 05:10:04;;;;;;;8.93;4.00;;;;;;;;;;5070180;28;20850;-47
2023/06/27 05:12:31;;;;;;;6.50;3.30;;;;;;;;;;5067825;28;20448;-48
2023/06/27 05:14:58;;;;;;;6.50;3.43;;;;;;;;;;5069142;28;20469;-48
2023/06/27 05:17:25;;;;;;;4.77;3.23;;;;;;;;;;5069187;28;20456;-48
2023/06/27 05:19:53;;;;;;;7.10;3.27;;;;;;;;;;5074326;28;20514;-48
2023/06/27 05:22:20;;;;;;;6.50;3.10;;;;;;;;;;5073270;28;20526;-48
2023/06/27 05:24:47;;;;;;;4.90;3.43;;;;;;;;;;5071906;28;20438;-48
2023/06/27 05:27:16;;;;;;;6.33;2.97;;;;;;;;;;5072483;28;20463;-47
2023/06/27 05:29:43;;;;;;;4.93;2.73;;;;;;;;;;5070941;28;20510;-47
2023/06/27 05:32:10;;;;;;;5.03;2.97;;;;;;;;;;5073879;28;20540;-47
2023/06/27 05:34:37;;;;;;;4.83;2.97;;;;;;;;;;5072824;28;20948;-48
2023/06/27 05:37:05;;;;;;;6.63;3.53;;;;;;;;;;5073255;28;20489;-47
2023/06/27 05:39:32;;;;;;;8.83;3.17;;;;;;;;;;5073995;28;20495;-46
2023/06/27 05:41:59;;;;;;;3.50;2.60;;;;;;;;;;5074163;28;20709;-46
2023/06/27 05:44:28;;;;;;;5.40;2.63;;;;;;;;;;5073635;28;20532;-46
2023/06/27 05:46:56;;;;;;;5.73;2.67;;;;;;;;;;5073679;28;20554;-46
2023/06/27 05:49:23;;;;;;;5.80;2.43;;;;;;;;;;5074076;28;20443;-46
2023/06/27 05:51:50;;;;;;;6.07;2.90;;;;;;;;;;5072757;28;20959;-47
2023/06/27 05:54:17;;;;;;;3.73;2.50;;;;;;;;;;5073419;28;20505;-47
2023/06/27 05:56:45;;;;;;;3.70;2.47;;;;;;;;;;5073297;28;20499;-47
2023/06/27 05:59:12;;;;;;;5.17;2.67;;;;;;;;;;5073377;28;20539;-47
2023/06/27 06:01:40;;;;;;;6.23;2.90;;;;;;;;;;5073131;28;20483;-47
2023/06/27 06:04:08;;;;;;;4.43;2.37;;;;;;;;;;5073734;28;20630;-47
2023/06/27 06:06:37;;;;;;;5.30;3.20;;;;;;;;;;5073134;28;20939;-47
2023/06/27 06:09:05;;;;;;;3.40;2.67;;;;;;;;;;5073369;28;20453;-47
2023/06/27 06:11:34;;;;;;;4.37;2.60;;;;;;;;;;5073093;28;20476;-47
2023/06/27 06:14:02;;;;;;;5.23;2.77;;;;;;;;;;5072361;28;20452;-46
2023/06/27 06:16:29;;;;;;;5.40;2.67;;;;;;;;;;5072571;28;21013;-47
2023/06/27 06:18:57;;;;;;;4.63;2.50;;;;;;;;;;5072787;28;20529;-46
2023/06/27 06:21:25;;;;;;;5.40;2.77;;;;;;;;;;5073156;28;20558;-46
2023/06/27 06:23:52;;;;;;;5.40;3.03;;;;;;;;;;5073419;28;20446;-46
2023/06/27 06:26:19;;;;;;;4.90;2.20;;;;;;;;;;5073146;28;20492;-48
2023/06/27 06:28:47;;;;;;;4.90;2.23;;;;;;;;;;5072579;28;20538;-46
2023/06/27 06:31:16;;;;;;;3.73;2.53;;;;;;;;;;5072932;28;20444;-47
2023/06/27 06:33:44;;;;;;;4.20;2.80;;;;;;;;;;5072822;28;20491;-46
2023/06/27 06:36:13;;;;;;;5.63;2.90;;;;;;;;;;5071737;28;20472;-47
2023/06/27 06:38:40;;;;;;;8.57;3.10;;;;;;;;;;5072668;28;20853;-46
2023/06/27 06:41:08;;;;;;;4.47;2.80;;;;;;;;;;5072753;28;20569;-47
2023/06/27 06:43:35;;;;;;;4.50;3.30;;;;;;;;;;5073007;28;20528;-47
2023/06/27 06:46:02;;;;;;;5.10;3.10;;;;;;;;;;5071768;28;20558;-47
2023/06/27 06:48:29;;;;;;;4.20;3.27;;;;;;;;;;5072651;28;20521;-47
2023/06/27 06:50:57;;;;;;;3.53;2.43;;;;;;;;;;5072197;28;20997;-48
2023/06/27 06:53:25;;;;;;;5.07;2.90;;;;;;;;;;5072568;28;20535;-47
2023/06/27 06:55:53;;;;;;;6.77;3.53;;;;;;;;;;5071688;28;21031;-48
2023/06/27 06:58:20;;;;;;;10.00;2.97;;;;;;;;;;5072326;28;20526;-47
2023/06/27 07:00:47;;;;;;;5.70;3.23;;;;;;;;;;5072880;28;20559;-47
2023/06/27 07:03:15;;;;;;;5.53;3.00;;;;;;;;;;5072372;28;20470;-47
2023/06/27 07:05:43;;;;;;;4.60;3.47;;;;;;;;;;5071628;28;20993;-48
2023/06/27 07:08:10;;;;;;;3.83;2.47;;;;;;;;;;5072377;28;20527;-47
2023/06/27 07:10:39;;;;;;;5.10;3.00;;;;;;;;;;5072195;28;20534;-47
2023/06/27 07:13:06;;;;;;;3.67;2.20;;;;;;;;;;5070353;28;20896;-47
2023/06/27 07:15:34;;;;;;;6.20;3.20;;;;;;;;;;5070178;28;20489;-47
2023/06/27 07:18:01;;;;;;;5.70;3.30;;;;;;;;;;5071720;28;20517;-47
2023/06/27 07:20:28;;;;;;;3.10;2.17;;;;;;;;;;5071161;28;20509;-46
2023/06/27 07:22:55;;;;;;;5.07;2.50;;;;;;;;;;5072039;28;20472;-47
2023/06/27 07:25:23;;;;;;;4.50;2.50;;;;;;;;;;5071343;28;20886;-47
2023/06/27 07:27:52;;;;;;;5.60;3.30;;;;;;;;;;5072043;28;20559;-47
2023/06/27 07:30:19;;;;;;;5.03;2.90;;;;;;;;;;5071422;28;20486;-45
2023/06/27 07:32:46;;;;;;;4.43;2.80;;;;;;;;;;5071407;28;20474;-48
2023/06/27 07:35:14;;;;;;;4.73;3.17;;;;;;;;;;5070873;28;20440;-46
2023/06/27 07:37:41;;;;;;;5.57;2.87;;;;;;;;;;5071714;28;20754;-47
2023/06/27 07:40:09;;;;;;;5.30;3.33;;;;;;;;;;5071398;28;20480;-47
2023/06/27 07:42:36;;;;;;;4.80;2.70;;;;;;;;;;5071708;28;20486;-47
2023/06/27 07:45:05;;;;;;;5.50;3.13;;;;;;;;;;5071859;28;20537;-47
2023/06/27 07:47:32;;;;;;;5.40;3.03;;;;;;;;;;5071417;28;20551;-47
2023/06/27 07:50:00;;;;;;;4.40;3.13;;;;;;;;;;5071863;28;20472;-47
2023/06/27 07:52:27;;;;;;;6.67;2.67;;;;;;;;;;5071485;28;20532;-47
2023/06/27 07:54:54;;;;;;;5.33;3.03;;;;;;;;;;5071426;28;20532;-47
2023/06/27 07:57:22;;;;;;;5.20;2.50;;;;;;;;;;5070565;28;20871;-49
2023/06/27 07:59:49;;;;;;;3.93;2.57;;;;;;;;;;5071534;28;20561;-47
2023/06/27 08:02:17;;;;;;;6.10;2.90;;;;;;;;;;5070540;28;20476;-47
2023/06/27 08:04:45;;;;;;;4.47;3.00;;;;;;;;;;5071420;28;20476;-47
2023/06/27 08:07:12;;;;;;;7.33;3.30;;;;;;;;;;5070048;28;20662;-47
2023/06/27 08:09:39;;;;;;;5.23;2.80;;;;;;;;;;5071211;28;20944;-47
2023/06/27 08:12:07;;;;;;;6.03;3.03;;;;;;;;;;5070425;28;20547;-47
2023/06/27 08:14:34;;;;;;;4.70;3.07;;;;;;;;;;5068353;28;20874;-47
2023/06/27 08:17:01;;;;;;;3.97;3.07;;;;;;;;;;5068756;28;20552;-47
2023/06/27 08:19:30;;;;;;;6.50;3.33;;;;;;;;;;5070545;28;20532;-47
2023/06/27 08:21:57;;;;;;;6.07;3.00;;;;;;;;;;5068271;28;20569;-47
2023/06/27 08:24:25;;;;;;;4.33;2.50;;;;;;;;;;5070186;28;20502;-47
2023/06/27 08:26:55;;;;;;;5.10;2.90;;;;;;;;;;5070956;28;20562;-47
2023/06/27 08:29:23;;;;;;;4.33;2.77;;;;;;;;;;5069748;28;20448;-48
2023/06/27 08:31:51;;;;;;;8.93;2.97;;;;;;;;;;5069624;28;20448;-47
2023/06/27 08:34:19;;;;;;;5.30;2.30;;;;;;;;;;5067374;28;20445;-47
2023/06/27 08:36:47;;;;;;;4.30;2.63;;;;;;;;;;5068463;28;20460;-48
2023/06/27 08:39:14;;;;;;;4.57;2.73;;;;;;;;;;5068845;28;20468;-47
2023/06/27 08:41:42;;;;;;;9.07;3.27;;;;;;;;;;5069317;28;20472;-47
2023/06/27 08:44:09;;;;;;;5.40;3.00;;;;;;;;;;5069237;28;20495;-47
2023/06/27 08:46:37;;;;;;;4.70;3.20;;;;;;;;;;5068861;28;20472;-48
2023/06/27 08:49:05;;;;;;;5.87;2.57;;;;;;;;;;5070188;28;21015;-47
2023/06/27 08:51:32;;;;;;;4.70;3.00;;;;;;;;;;5070975;28;20559;-47
2023/06/27 08:54:05;;;;;;;5.40;2.80;;;;;;;;;;5074447;28;20471;-47
2023/06/27 08:56:33;;;;;;;3.70;2.60;;;;;;;;;;5074457;28;20496;-46
2023/06/27 08:59:03;;;;;;;4.20;2.83;;;;;;;;;;5074101;28;20436;-46
2023/06/27 09:01:32;;;;;;;4.40;2.90;;;;;;;;;;5074691;28;20526;-47
2023/06/27 09:04:00;;;;;;;7.40;2.87;;;;;;;;;;5074668;28;20440;-46
2023/06/27 09:06:27;;;;;;;5.93;3.10;;;;;;;;;;5074181;28;20460;-47
2023/06/27 09:08:54;;;;;;;3.97;2.80;;;;;;;;;;5074546;28;20464;-47
2023/06/27 09:11:23;;;;;;;6.23;3.37;;;;;;;;;;5074670;28;20661;-47
2023/06/27 09:13:50;;;;;;;5.13;2.80;;;;;;;;;;5073767;28;21003;-48
2023/06/27 09:16:18;;;;;;;4.60;3.00;;;;;;;;;;5074234;28;20984;-47
2023/06/27 09:18:46;;;;;;;6.20;3.13;;;;;;;;;;5074261;28;20882;-47
2023/06/27 09:21:13;;;;;;;4.80;2.50;;;;;;;;;;5074305;28;20558;-47
2023/06/27 09:23:41;;;;;;;4.80;2.93;;;;;;;;;;5072669;28;20992;-47
2023/06/27 09:26:09;;;;;;;7.87;3.00;;;;;;;;;;5073969;28;20495;-47
2023/06/27 09:28:47;;;;;;;5.47;3.20;;;;;;;;;;5054345;28;20476;-47
2023/06/27 09:31:15;;;;;;;6.13;3.53;;;;;;;;;;5054429;28;20472;-48
2023/06/27 09:33:43;;;;;;;3.83;2.43;;;;;;;;;;5060747;28;20536;-47
2023/06/27 09:36:10;;;;;;;4.57;3.40;;;;;;;;;;5073080;28;20467;-47
2023/06/27 09:38:38;;;;;;;4.90;3.33;;;;;;;;;;5073533;28;20487;-47
2023/06/27 09:41:06;;;;;;;5.27;3.73;;;;;;;;;;5073931;28;20523;-46
2023/06/27 09:43:35;;;;;;;4.80;2.73;;;;;;;;;;5074228;28;20468;-47
2023/06/27 09:46:04;;;;;;;4.80;3.13;;;;;;;;;;5073691;28;20471;-46
2023/06/27 09:48:32;;;;;;;5.23;3.13;;;;;;;;;;5073315;28;20937;-47
2023/06/27 09:50:59;;;;;;;7.43;3.67;;;;;;;;;;5074318;28;20531;-47
2023/06/27 09:53:26;;;;;;;5.67;3.43;;;;;;;;;;5074131;28;20440;-47
2023/06/27 09:56:00;;;;;;;3.93;2.97;;;;;;;;;;5073411;28;20502;-48
2023/06/27 09:58:28;;;;;;;7.30;2.70;;;;;;;;;;5073808;28;20448;-47
2023/06/27 10:00:56;;;;;;;5.10;3.60;;;;;;;;;;5073815;28;20445;-47
2023/06/27 10:03:24;;;;;;;5.33;3.60;;;;;;;;;;5072971;28;20480;-46
2023/06/27 10:05:51;;;;;;;5.73;3.57;;;;;;;;;;5073390;28;20536;-47
2023/06/27 10:08:19;;;;;;;6.00;3.40;;;;;;;;;;5073282;28;20535;-47
2023/06/27 10:10:46;;;;;;;5.00;3.10;;;;;;;;;;5073199;28;20479;-47
2023/06/27 10:13:13;;;;;;;4.77;2.83;;;;;;;;;;5073361;28;20464;-47
2023/06/27 10:15:41;;;;;;;4.30;2.77;;;;;;;;;;5070433;28;20963;-47
2023/06/27 10:18:08;;;;;;;6.27;4.40;;;;;;;;;;5071680;28;20484;-47
2023/06/27 10:20:37;;;;;;;7.30;3.63;;;;;;;;;;5068881;28;20463;-46
2023/06/27 10:23:04;;;;;;;7.43;3.00;;;;;;;;;;5073065;28;20560;-47
2023/06/27 10:25:31;;;;;;;6.23;3.40;;;;;;;;;;5070384;28;20464;-47
2023/06/27 10:28:08;;;;;;;4.33;3.37;;;;;;;;;;5068960;28;20548;-47
2023/06/27 10:30:39;;;;;;;5.03;3.50;;;;;;;;;;5053192;28;20528;-48
2023/06/27 10:33:10;;;;;;;5.30;3.73;;;;;;;;;;5053040;28;20443;-47
2023/06/27 10:35:50;;;;;;;4.30;2.80;;;;;;;;;;5052159;28;20454;-48
2023/06/27 10:38:18;;;;;;;5.40;3.30;;;;;;;;;;5071032;28;20439;-47
2023/06/27 10:41:05;;;;;;;5.33;2.70;;;;;;;;;;5067411;28;20465;-46
2023/06/27 10:43:39;;;;;;;4.30;3.37;;;;;;;;;;5071056;28;20480;-47
2023/06/27 10:46:07;;;;;;;4.93;3.30;;;;;;;;;;5070647;28;20543;-47
2023/06/27 10:48:48;;;;;;;5.70;3.03;;;;;;;;;;5069639;28;20460;-46
2023/06/27 10:51:21;;;;;;;8.40;3.03;;;;;;;;;;5071705;28;20444;-47
2023/06/27 10:54:06;;;;;;;3.30;2.70;;;;;;;;;;5092332;28;20531;-47
2023/06/27 10:56:34;;;;;;;5.00;2.70;;;;;;;;;;5070854;28;20480;-47
2023/06/27 10:59:03;;;;;;;6.33;3.40;;;;;;;;;;5071472;28;20479;-47
2023/06/27 11:01:31;;;;;;;5.03;3.30;;;;;;;;;;5072573;28;20520;-47
2023/06/27 11:03:58;;;;;;;4.70;3.80;;;;;;;;;;5070344;28;20548;-46
2023/06/27 11:06:40;;;;;;;6.50;3.17;;;;;;;;;;5070552;28;20476;-47
2023/06/27 11:09:10;;;;;;;3.63;3.17;;;;;;;;;;5067257;28;20545;-47
2023/06/27 11:11:37;;;;;;;5.93;3.47;;;;;;;;;;5069176;28;20476;-47
2023/06/27 11:14:06;;;;;;;4.20;3.20;;;;;;;;;;5068201;28;20551;-47
2023/06/27 11:16:34;;;;;;;6.97;3.23;;;;;;;;;;5069638;28;20490;-48
2023/06/27 11:19:02;;;;;;;4.10;3.17;;;;;;;;;;5071059;28;20445;-48
2023/06/27 11:21:29;;;;;;;4.97;2.77;;;;;;;;;;5071744;28;20443;-48
2023/06/27 11:23:59;;;;;;;6.37;3.00;;;;;;;;;;5071290;28;20444;-48
2023/06/27 11:26:26;;;;;;;39.33;6.35;;;;;;;;;;5071186;28;20605;-49
2023/06/27 11:28:53;;;;;;;6.30;2.63;;;;;;;;;;5071870;28;20241;-49
2023/06/27 11:31:21;;;;;;;4.00;2.57;;;;;;;;;;5072069;28;20449;-50
2023/06/27 11:33:57;;;;;;;3.40;2.40;;;;;;;;;;5072276;28;20825;-50
2023/06/27 11:36:24;;;;;;;3.90;2.80;;;;;;;;;;5071292;28;20460;-50
2023/06/27 11:38:51;;;;;;;5.30;3.27;;;;;;;;;;5071896;28;20437;-50
2023/06/27 11:41:21;;;;;;;3.63;2.40;;;;;;;;;;5072053;28;20523;-49
2023/06/27 11:43:48;;;;;;;5.90;2.63;;;;;;;;;;5071685;28;20480;-50
2023/06/27 11:46:19;;;;;;;4.80;2.60;;;;;;;;;;5071641;28;20560;-50
2023/06/27 11:48:48;;;;;;;4.80;2.23;;;;;;;;;;5070086;28;20455;-49
2023/06/27 11:51:15;;;;;;;6.13;3.37;;;;;;;;;;5071349;28;20441;-49
2023/06/27 11:53:48;;;;;;;4.97;3.10;;;;;;;;;;5071380;28;20483;-50
2023/06/27 11:56:15;;;;;;;5.90;3.43;;;;;;;;;;5070253;28;20464;-50
2023/06/27 11:58:46;;;;;;;5.03;2.63;;;;;;;;;;5066156;28;20529;-50
2023/06/27 12:01:14;;;;;;;3.60;2.43;;;;;;;;;;5067630;28;20520;-50
2023/06/27 12:03:42;;;;;;;4.93;3.33;;;;;;;;;;5070524;28;20563;-50
2023/06/27 12:06:24;;;;;;;5.43;2.80;;;;;;;;;;5070300;28;20517;-50
2023/06/27 12:08:52;;;;;;;5.00;2.80;;;;;;;;;;5071142;28;20528;-50
2023/06/27 12:11:19;;;;;;;6.57;4.40;;;;;;;;;;5071288;28;20528;-50
2023/06/27 12:13:47;;;;;;;4.50;2.90;;;;;;;;;;5070954;28;20468;-50
2023/06/27 12:16:25;;;;;;;5.10;3.03;;;;;;;;;;5061821;28;20546;-51
2023/06/27 12:18:52;;;;;;;3.50;2.70;;;;;;;;;;5070956;28;20458;-51
2023/06/27 12:21:19;;;;;;;3.40;2.80;;;;;;;;;;5071127;28;20547;-50
2023/06/27 12:23:46;;;;;;;6.43;3.07;;;;;;;;;;5071176;28;20480;-50
2023/06/27 12:26:14;;;;;;;4.30;2.63;;;;;;;;;;5070813;28;20706;-50
2023/06/27 12:28:56;;;;;;;8.00;3.50;;;;;;;;;;5071325;28;20475;-50
2023/06/27 12:31:24;;;;;;;5.20;3.63;;;;;;;;;;5071286;28;20533;-50
2023/06/27 12:33:52;;;;;;;4.90;3.47;;;;;;;;;;5070889;28;20498;-51
2023/06/27 12:36:21;;;;;;;4.07;2.57;;;;;;;;;;5069233;28;21043;-50
2023/06/27 12:38:49;;;;;;;6.80;3.37;;;;;;;;;;5070846;28;20441;-50
2023/06/27 12:41:16;;;;;;;3.30;2.50;;;;;;;;;;5070199;28;21143;-50
2023/06/27 12:43:43;;;;;;;3.20;2.33;;;;;;;;;;5071026;28;20507;-50
2023/06/27 12:46:10;;;;;;;4.47;2.60;;;;;;;;;;5070106;28;20671;-51
2023/06/27 12:48:40;;;;;;;4.37;2.23;;;;;;;;;;5070498;28;20448;-51
2023/06/27 12:51:07;;;;;;;3.53;2.73;;;;;;;;;;5062865;28;20528;-50
2023/06/27 12:53:35;;;;;;;7.03;3.10;;;;;;;;;;5062699;28;20873;-52
2023/06/27 12:56:03;;;;;;;6.13;3.40;;;;;;;;;;5070672;28;20539;-50
2023/06/27 12:58:30;;;;;;;4.50;3.50;;;;;;;;;;5070952;28;20447;-50
2023/06/27 13:01:00;;;;;;;5.80;3.67;;;;;;;;;;5071878;28;20537;-51
2023/06/27 13:03:27;;;;;;;4.50;3.23;;;;;;;;;;5070706;28;20486;-50
2023/06/27 13:05:56;;;;;;;3.77;2.50;;;;;;;;;;5070212;28;20507;-51
2023/06/27 13:08:23;;;;;;;3.70;2.73;;;;;;;;;;5069824;28;20952;-51
2023/06/27 13:10:50;;;;;;;3.87;2.37;;;;;;;;;;5070445;28;21032;-51
2023/06/27 13:13:17;;;;;;;4.83;2.60;;;;;;;;;;5070732;28;20540;-51
2023/06/27 13:15:45;;;;;;;4.50;3.90;;;;;;;;;;5069848;28;20521;-51
2023/06/27 13:18:12;;;;;;;5.67;3.13;;;;;;;;;;5070097;28;20447;-51
2023/06/27 13:20:40;;;;;;;3.93;2.60;;;;;;;;;;5070836;28;20472;-51
2023/06/27 13:23:08;;;;;;;6.60;3.03;;;;;;;;;;5069945;28;20483;-51
2023/06/27 13:25:35;;;;;;;5.00;3.07;;;;;;;;;;5062022;28;20527;-51
2023/06/27 13:28:03;;;;;;;7.03;2.93;;;;;;;;;;5070470;28;20444;-51
2023/06/27 13:30:30;;;;;;;8.10;3.57;;;;;;;;;;5070661;28;20873;-51
2023/06/27 13:32:57;;;;;;;3.33;2.43;;;;;;;;;;5070669;28;20441;-51
2023/06/27 13:35:25;;;;;;;6.60;3.83;;;;;;;;;;5070230;28;20441;-51
2023/06/27 13:37:52;;;;;;;7.03;3.63;;;;;;;;;;5069809;28;20563;-51
2023/06/27 13:40:21;;;;;;;5.30;3.37;;;;;;;;;;5073401;28;20480;-51
2023/06/27 13:42:48;;;;;;;4.50;2.63;;;;;;;;;;5074151;28;20555;-51
2023/06/27 13:45:16;;;;;;;3.80;2.87;;;;;;;;;;5073626;28;20531;-51
2023/06/27 13:47:43;;;;;;;7.53;4.33;;;;;;;;;;5073832;28;20468;-51
2023/06/27 13:50:10;;;;;;;4.03;2.90;;;;;;;;;;5073956;28;20476;-51
2023/06/27 13:52:37;;;;;;;4.60;2.40;;;;;;;;;;5074041;28;20527;-51
2023/06/27 13:55:06;;;;;;;5.13;3.40;;;;;;;;;;5074202;28;20528;-51
2023/06/27 13:57:34;;;;;;;6.30;3.70;;;;;;;;;;5073636;28;20476;-51
2023/06/27 14:00:01;;;;;;;4.23;3.00;;;;;;;;;;5073613;28;20527;-51
2023/06/27 14:02:29;;;;;;;5.73;3.03;;;;;;;;;;5073558;28;20521;-51
2023/06/27 14:04:56;;;;;;;4.63;3.20;;;;;;;;;;5072892;28;20503;-51
2023/06/27 14:07:24;;;;;;;4.60;3.00;;;;;;;;;;5073277;28;20461;-51
2023/06/27 14:09:51;;;;;;;3.57;2.70;;;;;;;;;;5073120;28;20503;-51
2023/06/27 14:12:19;;;;;;;6.73;3.07;;;;;;;;;;5073633;28;20440;-51
2023/06/27 14:14:47;;;;;;;4.53;2.83;;;;;;;;;;5072628;28;20440;-51
2023/06/27 14:17:15;;;;;;;4.00;3.10;;;;;;;;;;5072942;28;20559;-51
2023/06/27 14:19:43;;;;;;;4.17;2.60;;;;;;;;;;5073237;28;20436;-51
2023/06/27 14:22:11;;;;;;;3.83;2.80;;;;;;;;;;5070799;28;20444;-51
2023/06/27 14:24:38;;;;;;;4.27;3.30;;;;;;;;;;5065393;28;20583;-51
2023/06/27 14:27:06;;;;;;;5.40;2.70;;;;;;;;;;5072922;28;21022;-51
2023/06/27 14:29:33;;;;;;;3.40;2.77;;;;;;;;;;5073197;28;20449;-51
2023/06/27 14:32:03;;;;;;;6.63;3.30;;;;;;;;;;5073051;28;20466;-51
2023/06/27 14:34:30;;;;;;;4.97;3.30;;;;;;;;;;5073104;28;20444;-51
2023/06/27 14:36:57;;;;;;;4.03;3.10;;;;;;;;;;5071180;28;20559;-51
2023/06/27 14:39:25;;;;;;;5.40;3.03;;;;;;;;;;5073092;28;20471;-51
2023/06/27 14:41:52;;;;;;;4.97;2.90;;;;;;;;;;5072956;28;20546;-51
2023/06/27 14:44:19;;;;;;;5.60;3.63;;;;;;;;;;5072818;28;20556;-51
2023/06/27 14:46:47;;;;;;;4.80;2.73;;;;;;;;;;5072420;28;20476;-52
2023/06/27 14:49:16;;;;;;;9.03;3.60;;;;;;;;;;5072686;28;20444;-51